createdAt,value
2023-02-15T00:02:20.858Z,0.66
2023-02-15T00:05:23.819Z,0.67
2023-02-15T00:08:26.395Z,0.65
2023-02-15T00:11:41.581Z,0.60
2023-02-15T00:14:44.276Z,0.62
2023-02-15T00:17:47.237Z,0.61
2023-02-15T00:20:49.875Z,0.56
2023-02-15T00:23:52.747Z,0.55
2023-02-15T00:26:55.377Z,0.50
2023-02-15T00:29:58.495Z,0.51
2023-02-15T00:33:01.162Z,0.50
2023-02-15T00:36:05.810Z,0.33
2023-02-15T00:39:09.007Z,0.48
2023-02-15T00:42:11.991Z,0.44
2023-02-15T00:45:16.552Z,0.37
2023-02-15T00:48:22.063Z,0.31
2023-02-15T00:51:25.007Z,0.31
2023-02-15T00:54:27.743Z,0.26
2023-02-15T00:57:30.280Z,0.26
2023-02-15T01:00:33.403Z,0.21
2023-02-15T01:03:36.104Z,-0.02
2023-02-15T01:06:39.554Z,0.13
2023-02-15T01:09:42.273Z,0.15
2023-02-15T01:12:45.129Z,0.11
2023-02-15T01:15:54.192Z,0.09
2023-02-15T01:18:58.030Z,0.04
2023-02-15T01:22:00.693Z,0.04
2023-02-15T01:25:03.754Z,0.03
2023-02-15T01:28:06.652Z,0.01
2023-02-15T01:31:15.119Z,-0.13
2023-02-15T01:34:18.000Z,0.04
2023-02-15T01:37:20.826Z,0.07
2023-02-15T01:40:24.333Z,0.09
2023-02-15T01:43:41.401Z,0.08
2023-02-15T01:46:51.149Z,0.08
2023-02-15T01:50:01.699Z,0.09
2023-02-15T01:53:12.382Z,0.09
2023-02-15T01:56:21.190Z,0.08
2023-02-15T01:59:25.210Z,0.02
2023-02-15T02:02:29.020Z,0.01
2023-02-15T02:05:32.103Z,0.00
2023-02-15T02:08:34.948Z,-0.04
2023-02-15T02:11:39.921Z,-0.09
2023-02-15T02:14:43.375Z,-0.06
2023-02-15T02:18:04.295Z,-0.08
2023-02-15T02:21:56.509Z,-0.08
2023-02-15T02:25:17.588Z,-0.06
2023-02-15T02:28:26.681Z,-0.09
2023-02-15T02:31:36.996Z,-0.08
2023-02-15T02:34:47.433Z,-0.10
2023-02-15T02:38:04.241Z,-0.24
2023-02-15T02:41:30.388Z,-0.08
2023-02-15T02:44:40.707Z,-0.06
2023-02-15T02:48:07.973Z,-0.09
2023-02-15T02:51:10.568Z,-0.08
2023-02-15T02:54:13.461Z,-0.05
2023-02-15T02:57:16.595Z,-0.05
2023-02-15T03:00:22.339Z,-0.03
2023-02-15T03:03:33.236Z,-0.03
2023-02-15T03:06:55.077Z,-0.02
2023-02-15T03:10:00.033Z,0.02
2023-02-15T03:13:03.837Z,-0.01
2023-02-15T03:16:26.699Z,-0.01
2023-02-15T03:19:32.193Z,-0.01
2023-02-15T03:22:49.701Z,-0.05
2023-02-15T03:26:03.743Z,-0.09
2023-02-15T03:29:08.645Z,-0.09
2023-02-15T03:32:12.612Z,-0.01
2023-02-15T03:35:15.689Z,0.07
2023-02-15T03:38:23.531Z,0.18
2023-02-15T03:41:30.294Z,0.27
2023-02-15T03:44:38.598Z,0.36
2023-02-15T03:47:44.693Z,0.42
2023-02-15T03:51:06.282Z,0.42
2023-02-15T03:54:10.561Z,0.44
2023-02-15T03:57:35.328Z,0.38
2023-02-15T04:00:59.261Z,0.52
2023-02-15T04:04:12.690Z,0.54
2023-02-15T04:07:15.281Z,0.54
2023-02-15T04:10:36.831Z,0.52
2023-02-15T04:13:39.661Z,0.50
2023-02-15T04:16:42.608Z,0.51
2023-02-15T04:20:04.266Z,0.51
2023-02-15T04:23:26.889Z,0.50
2023-02-15T04:26:29.557Z,0.48
2023-02-15T04:29:32.766Z,0.45
2023-02-15T04:32:35.633Z,0.41
2023-02-15T04:35:38.513Z,0.40
2023-02-15T04:38:41.052Z,0.36
2023-02-15T04:41:44.728Z,0.35
2023-02-15T04:44:47.187Z,0.32
2023-02-15T04:47:50.447Z,0.33
2023-02-15T04:50:53.160Z,0.33
2023-02-15T04:53:57.007Z,0.32
2023-02-15T04:56:59.560Z,0.27
2023-02-15T05:00:02.449Z,0.23
2023-02-15T05:03:07.486Z,0.20
2023-02-15T05:06:10.379Z,0.19
2023-02-15T05:09:13.534Z,0.19
2023-02-15T05:12:16.372Z,0.12
2023-02-15T05:15:18.960Z,0.06
2023-02-15T05:18:23.912Z,0.05
2023-02-15T05:21:26.653Z,0.03
2023-02-15T05:24:48.376Z,0.00
2023-02-15T05:28:09.138Z,0.01
2023-02-15T05:31:14.985Z,0.06
2023-02-15T05:34:17.655Z,0.06
2023-02-15T05:37:20.517Z,0.06
2023-02-15T05:40:23.148Z,-0.02
2023-02-15T05:43:26.362Z,0.02
2023-02-15T05:46:29.003Z,-0.04
2023-02-15T05:49:32.525Z,-0.01
2023-02-15T05:52:35.674Z,0.06
2023-02-15T05:55:42.094Z,0.00
2023-02-15T05:58:44.716Z,-0.12
2023-02-15T06:01:47.601Z,-0.25
2023-02-15T06:04:50.541Z,-0.21
2023-02-15T06:07:53.151Z,1.58
2023-02-15T06:10:56.110Z,0.93
2023-02-15T06:13:58.610Z,0.70
2023-02-15T06:17:01.416Z,0.54
2023-02-15T06:20:05.124Z,0.40
2023-02-15T06:23:08.048Z,0.91
2023-02-15T06:26:10.791Z,1.79
2023-02-15T06:29:13.716Z,1.91
2023-02-15T06:32:16.262Z,1.50
2023-02-15T06:35:19.133Z,1.23
2023-02-15T06:38:22.177Z,1.05
2023-02-15T06:41:25.083Z,0.86
2023-02-15T06:44:27.918Z,0.75
2023-02-15T06:47:30.868Z,0.72
2023-02-15T06:50:33.748Z,0.68
2023-02-15T06:53:36.889Z,0.68
2023-02-15T06:56:39.770Z,0.67
2023-02-15T06:59:42.871Z,0.68
2023-02-15T07:02:45.937Z,0.69
2023-02-15T07:05:49.822Z,0.72
2023-02-15T07:08:52.660Z,0.76
2023-02-15T07:12:14.277Z,0.81
2023-02-15T07:15:18.974Z,0.89
2023-02-15T07:18:21.850Z,0.98
2023-02-15T07:21:24.427Z,1.06
2023-02-15T07:24:27.453Z,1.16
2023-02-15T07:27:30.099Z,1.23
2023-02-15T07:30:33.170Z,1.30
2023-02-15T07:33:35.905Z,1.39
2023-02-15T07:36:38.722Z,1.51
2023-02-15T07:39:41.324Z,1.64
2023-02-15T07:42:44.282Z,1.69
2023-02-15T07:45:47.463Z,1.80
2023-02-15T07:48:50.402Z,1.93
2023-02-15T07:51:53.010Z,2.04
2023-02-15T07:54:55.885Z,2.20
2023-02-15T07:57:58.476Z,2.33
2023-02-15T08:01:05.102Z,2.44
2023-02-15T08:04:08.942Z,2.61
2023-02-15T08:07:11.514Z,2.74
2023-02-15T08:10:34.383Z,2.90
2023-02-15T08:13:54.480Z,2.99
2023-02-15T08:17:03.399Z,3.15
2023-02-15T08:20:06.630Z,3.34
2023-02-15T08:23:09.876Z,3.45
2023-02-15T08:26:12.456Z,3.63
2023-02-15T08:29:17.004Z,3.79
2023-02-15T08:32:20.071Z,4.03
2023-02-15T08:35:22.848Z,4.20
2023-02-15T08:38:25.312Z,4.45
2023-02-15T08:41:30.795Z,4.47
2023-02-15T08:44:33.462Z,4.68
2023-02-15T08:47:36.282Z,4.93
2023-02-15T08:50:38.813Z,5.02
2023-02-15T08:53:45.145Z,5.20
2023-02-15T08:56:47.948Z,5.37
2023-02-15T08:59:52.012Z,5.43
2023-02-15T09:02:54.695Z,5.64
2023-02-15T09:05:59.601Z,5.91
2023-02-15T09:09:02.390Z,6.03
2023-02-15T09:12:05.698Z,6.10
2023-02-15T09:15:08.561Z,6.33
2023-02-15T09:18:14.255Z,6.48
2023-02-15T09:21:20.654Z,6.67
2023-02-15T09:24:23.643Z,6.73
2023-02-15T09:27:26.808Z,6.82
2023-02-15T09:30:29.875Z,7.04
2023-02-15T09:33:34.629Z,7.42
2023-02-15T09:36:39.380Z,7.54
2023-02-15T09:39:44.107Z,7.64
2023-02-15T09:43:16.565Z,7.85
2023-02-15T09:46:30.595Z,8.19
2023-02-15T09:50:18.509Z,8.44
2023-02-15T09:53:48.800Z,8.62
2023-02-15T09:56:56.866Z,8.74
2023-02-15T10:00:11.454Z,8.96
2023-02-15T10:03:25.954Z,9.06
2023-02-15T10:06:42.920Z,9.24
2023-02-15T10:10:03.871Z,9.81
2023-02-15T10:13:13.631Z,9.97
2023-02-15T10:16:19.337Z,10.19
2023-02-15T10:19:34.237Z,10.47
2023-02-15T10:23:02.843Z,10.73
2023-02-15T10:26:22.171Z,10.92
2023-02-15T10:29:37.183Z,11.11
2023-02-15T10:33:01.073Z,11.35
2023-02-15T10:36:30.005Z,11.62
2023-02-15T10:39:45.569Z,11.71
2023-02-15T10:43:05.370Z,11.92
2023-02-15T10:46:17.391Z,12.17
2023-02-15T10:49:38.297Z,12.34
2023-02-15T10:52:52.385Z,12.39
2023-02-15T10:56:04.015Z,12.75
2023-02-15T10:59:46.054Z,12.95
2023-02-15T11:03:33.274Z,12.91
2023-02-15T11:06:38.636Z,13.11
2023-02-15T11:10:24.321Z,12.90
2023-02-15T11:13:30.198Z,13.18
2023-02-15T11:16:37.829Z,13.44
2023-02-15T11:19:49.267Z,13.75
2023-02-15T11:22:54.334Z,13.92
2023-02-15T11:26:02.766Z,13.88
2023-02-15T11:29:20.527Z,13.94
2023-02-15T11:32:30.202Z,14.02
2023-02-15T11:35:33.740Z,14.04
2023-02-15T11:38:37.641Z,14.25
2023-02-15T11:41:55.037Z,14.49
2023-02-15T11:45:17.016Z,14.42
2023-02-15T11:48:19.842Z,14.54
2023-02-15T11:51:24.346Z,14.44
2023-02-15T11:54:33.263Z,15.10
2023-02-15T11:57:43.659Z,15.14
2023-02-15T12:00:49.362Z,15.66
2023-02-15T12:04:00.168Z,15.19
2023-02-15T12:07:23.697Z,15.15
2023-02-15T12:10:32.011Z,15.30
2023-02-15T12:13:34.739Z,15.46
2023-02-15T12:16:46.291Z,15.26
2023-02-15T12:19:51.641Z,15.21
2023-02-15T12:23:05.822Z,15.51
2023-02-15T12:26:08.896Z,15.19
2023-02-15T12:29:17.760Z,15.50
2023-02-15T12:32:26.450Z,15.65
2023-02-15T12:35:34.921Z,16.01
2023-02-15T12:38:37.620Z,15.84
2023-02-15T12:41:55.574Z,15.24
2023-02-15T12:45:01.134Z,15.08
2023-02-15T12:48:18.552Z,15.26
2023-02-15T12:51:21.262Z,15.53
2023-02-15T12:54:31.220Z,15.20
2023-02-15T12:57:34.610Z,15.57
2023-02-15T13:00:37.954Z,15.41
2023-02-15T13:03:53.859Z,15.65
2023-02-15T13:06:59.953Z,15.40
2023-02-15T13:10:02.615Z,14.43
2023-02-15T13:13:34.332Z,14.39
2023-02-15T13:16:39.353Z,14.44
2023-02-15T13:19:46.185Z,14.16
2023-02-15T13:22:50.169Z,13.68
2023-02-15T13:25:53.205Z,13.77
2023-02-15T13:28:58.714Z,13.61
2023-02-15T13:32:12.231Z,13.14
2023-02-15T13:35:19.989Z,13.08
2023-02-15T13:38:35.761Z,13.17
2023-02-15T13:41:51.609Z,12.97
2023-02-15T13:45:23.240Z,12.80
2023-02-15T13:48:55.758Z,12.30
2023-02-15T13:52:29.061Z,12.23
2023-02-15T13:55:43.950Z,11.43
2023-02-15T13:59:00.003Z,11.20
2023-02-15T14:02:29.981Z,10.97
2023-02-15T14:05:56.363Z,10.92
2023-02-15T14:09:33.178Z,10.89
2023-02-15T14:12:58.303Z,10.74
2023-02-15T14:16:16.094Z,10.60
2023-02-15T14:19:38.558Z,10.60
2023-02-15T14:22:50.242Z,10.40
2023-02-15T14:25:59.088Z,10.29
2023-02-15T14:29:11.899Z,10.18
2023-02-15T14:32:29.283Z,10.18
2023-02-15T14:35:32.405Z,9.93
2023-02-15T14:38:53.371Z,9.87
2023-02-15T14:42:06.724Z,9.73
2023-02-15T14:45:12.364Z,9.49
2023-02-15T14:48:26.961Z,9.40
2023-02-15T14:51:46.598Z,9.36
2023-02-15T14:54:49.395Z,9.18
2023-02-15T14:57:59.388Z,9.05
2023-02-15T15:01:07.788Z,8.97
2023-02-15T15:04:15.878Z,8.93
2023-02-15T15:07:26.967Z,8.83
2023-02-15T15:10:47.987Z,8.68
2023-02-15T15:13:58.045Z,8.61
2023-02-15T15:17:02.874Z,8.60
2023-02-15T15:20:31.780Z,8.51
2023-02-15T15:23:41.066Z,8.39
2023-02-15T15:26:49.983Z,8.26
2023-02-15T15:29:53.465Z,8.13
2023-02-15T15:32:58.910Z,8.17
2023-02-15T15:36:13.572Z,8.00
2023-02-15T15:39:28.479Z,7.85
2023-02-15T15:43:09.309Z,7.72
2023-02-15T15:46:20.082Z,7.61
2023-02-15T15:49:25.984Z,7.48
2023-02-15T15:52:29.869Z,7.43
2023-02-15T15:55:34.629Z,7.21
2023-02-15T15:58:38.078Z,7.11
2023-02-15T16:01:43.704Z,7.06
2023-02-15T16:04:48.089Z,6.72
2023-02-15T16:07:50.820Z,6.78
2023-02-15T16:10:53.937Z,6.69
2023-02-15T16:13:57.052Z,6.55
2023-02-15T16:17:02.993Z,6.46
2023-02-15T16:20:19.588Z,6.36
2023-02-15T16:23:44.595Z,6.29
2023-02-15T16:27:18.566Z,6.17
2023-02-15T16:30:38.094Z,6.05
2023-02-15T16:33:42.314Z,5.99
2023-02-15T16:36:45.286Z,5.95
2023-02-15T16:39:51.450Z,5.77
2023-02-15T16:43:07.636Z,5.71
2023-02-15T16:46:21.589Z,5.60
2023-02-15T16:49:27.603Z,5.48
2023-02-15T16:52:30.448Z,5.74
2023-02-15T16:55:40.271Z,6.03
2023-02-15T16:58:46.853Z,6.15
2023-02-15T17:01:51.836Z,6.27
2023-02-15T17:05:11.911Z,6.28
2023-02-15T17:08:35.318Z,6.26
2023-02-15T17:11:43.976Z,6.23
2023-02-15T17:14:47.332Z,6.27
2023-02-15T17:17:50.281Z,6.19
2023-02-15T17:20:57.659Z,6.22
2023-02-15T17:24:02.005Z,6.09
2023-02-15T17:27:26.885Z,5.93
2023-02-15T17:30:34.908Z,5.69
2023-02-15T17:33:40.386Z,5.74
2023-02-15T17:36:59.099Z,5.56
2023-02-15T17:40:11.294Z,5.68
2023-02-15T17:43:14.213Z,5.67
2023-02-15T17:46:19.733Z,5.60
2023-02-15T17:49:34.823Z,5.63
2023-02-15T17:52:38.516Z,5.51
2023-02-15T17:55:43.310Z,5.42
2023-02-15T17:58:46.977Z,5.36
2023-02-15T18:02:08.933Z,5.30
2023-02-15T18:05:34.420Z,5.30
2023-02-15T18:08:56.011Z,5.33
2023-02-15T18:12:02.382Z,5.36
2023-02-15T18:15:07.299Z,5.20
2023-02-15T18:18:12.591Z,5.10
2023-02-15T18:21:20.700Z,5.07
2023-02-15T18:24:26.477Z,4.89
2023-02-15T18:27:29.534Z,5.02
2023-02-15T18:30:33.499Z,4.95
2023-02-15T18:33:43.543Z,4.81
2023-02-15T18:36:47.566Z,4.98
2023-02-15T18:39:55.910Z,5.02
2023-02-15T18:43:00.116Z,4.95
2023-02-15T18:46:03.401Z,4.93
2023-02-15T18:49:06.972Z,4.78
2023-02-15T18:52:22.367Z,4.68
2023-02-15T18:55:28.212Z,4.34
2023-02-15T18:58:31.360Z,3.92
2023-02-15T19:01:34.602Z,3.62
2023-02-15T19:04:37.621Z,3.28
2023-02-15T19:07:42.382Z,3.17
2023-02-15T19:10:45.766Z,3.01
2023-02-15T19:13:51.899Z,2.89
2023-02-15T19:16:56.536Z,2.80
2023-02-15T19:19:59.821Z,2.72
2023-02-15T19:23:03.253Z,2.61
2023-02-15T19:26:06.743Z,2.50
2023-02-15T19:29:10.869Z,2.40
2023-02-15T19:32:16.493Z,2.35
2023-02-15T19:35:22.634Z,2.23
2023-02-15T19:38:33.046Z,2.15
2023-02-15T19:41:36.462Z,2.10
2023-02-15T19:44:43.603Z,2.07
2023-02-15T19:47:48.366Z,2.13
2023-02-15T19:50:52.956Z,1.98
2023-02-15T19:53:57.760Z,2.04
2023-02-15T19:57:01.394Z,2.04
2023-02-15T20:00:22.110Z,1.99
2023-02-15T20:03:25.882Z,1.94
2023-02-15T20:06:28.551Z,1.89
2023-02-15T20:09:33.896Z,1.90
2023-02-15T20:12:37.279Z,1.93
2023-02-15T20:15:41.218Z,1.91
2023-02-15T20:18:46.487Z,1.86
2023-02-15T20:21:54.655Z,1.77
2023-02-15T20:24:58.285Z,1.74
2023-02-15T20:28:01.966Z,1.81
2023-02-15T20:31:05.618Z,1.79
2023-02-15T20:34:09.673Z,1.82
2023-02-15T20:37:41.362Z,1.77
2023-02-15T20:41:06.053Z,1.71
2023-02-15T20:44:19.977Z,1.70
2023-02-15T20:47:23.121Z,1.67
2023-02-15T20:50:29.651Z,1.65
2023-02-15T20:53:33.138Z,1.61
2023-02-15T20:56:37.618Z,1.55
2023-02-15T20:59:41.687Z,1.51
2023-02-15T21:02:49.261Z,1.47
2023-02-15T21:05:52.698Z,1.45
2023-02-15T21:08:55.541Z,1.40
2023-02-15T21:11:59.710Z,0.93
2023-02-15T21:15:23.107Z,1.43
2023-02-15T21:18:29.185Z,1.38
2023-02-15T21:21:32.025Z,2.14
2023-02-15T21:24:35.291Z,1.84
2023-02-15T21:27:38.127Z,1.71
2023-02-15T21:30:43.593Z,1.51
2023-02-15T21:33:46.984Z,1.51
2023-02-15T21:36:50.854Z,1.43
2023-02-15T21:39:53.960Z,0.93
2023-02-15T21:43:16.058Z,1.31
2023-02-15T21:46:38.569Z,1.29
2023-02-15T21:49:41.751Z,1.24
2023-02-15T21:52:44.800Z,1.22
2023-02-15T21:55:48.028Z,1.05
2023-02-15T21:58:51.443Z,0.84
2023-02-15T22:01:54.594Z,1.20
2023-02-15T22:04:58.627Z,1.02
2023-02-15T22:08:01.386Z,1.16
2023-02-15T22:11:10.846Z,1.03
2023-02-15T22:14:35.613Z,1.10
2023-02-15T22:17:43.444Z,1.07
2023-02-15T22:20:46.105Z,1.02
2023-02-15T22:23:49.657Z,1.01
2023-02-15T22:26:52.366Z,1.01
2023-02-15T22:29:55.617Z,0.98
2023-02-15T22:32:59.029Z,0.98
2023-02-15T22:36:02.462Z,0.94
2023-02-15T22:39:05.081Z,0.81
2023-02-15T22:42:26.281Z,0.91
2023-02-15T22:45:29.205Z,0.91
2023-02-15T22:48:32.170Z,0.87
2023-02-15T22:51:35.017Z,0.84
2023-02-15T22:54:37.950Z,0.83
2023-02-15T22:57:40.409Z,0.74
2023-02-15T23:00:43.967Z,0.78
2023-02-15T23:03:46.559Z,0.80
2023-02-15T23:06:49.836Z,0.79
2023-02-15T23:09:52.389Z,0.77
2023-02-15T23:13:18.616Z,0.73
2023-02-15T23:16:21.192Z,0.71
2023-02-15T23:19:24.234Z,0.69
2023-02-15T23:22:26.826Z,0.68
2023-02-15T23:25:29.688Z,0.69
2023-02-15T23:28:37.402Z,0.67
2023-02-15T23:31:43.102Z,0.67
2023-02-15T23:34:45.831Z,0.47
2023-02-15T23:37:48.647Z,0.61
2023-02-15T23:41:13.450Z,0.61
2023-02-15T23:44:16.650Z,0.60
2023-02-15T23:48:08.085Z,0.55
2023-02-15T23:51:11.044Z,0.67
2023-02-15T23:54:15.486Z,0.67
2023-02-15T23:57:18.286Z,0.60
